sensor_id;sensor_type;location;lat;lon;timestamp;P1;durP1;ratioP1;P2;durP2;ratioP2
5813;SDS011;2933;52.302;8.134;2024-02-21T00:02:31;15.13;;;7.57;;
5813;SDS011;2933;52.302;8.134;2024-02-21T00:07:33;20.27;;;7.63;;
5813;SDS011;2933;52.302;8.134;2024-02-21T00:12:36;19.37;;;8.70;;
5813;SDS011;2933;52.302;8.134;2024-02-21T00:17:38;14.63;;;6.13;;
5813;SDS011;2933;52.302;8.134;2024-02-21T00:22:39;20.00;;;8.23;;
5813;SDS011;2933;52.302;8.134;2024-02-21T00:27:42;23.77;;;7.87;;
5813;SDS011;2933;52.302;8.134;2024-02-21T00:32:44;21.23;;;7.60;;
5813;SDS011;2933;52.302;8.134;2024-02-21T00:37:46;23.40;;;8.67;;
5813;SDS011;2933;52.302;8.134;2024-02-21T00:42:49;18.80;;;8.40;;
5813;SDS011;2933;52.302;8.134;2024-02-21T00:47:50;21.10;;;8.53;;
5813;SDS011;2933;52.302;8.134;2024-02-21T00:52:52;26.20;;;9.27;;
5813;SDS011;2933;52.302;8.134;2024-02-21T00:57:55;18.40;;;7.60;;
5813;SDS011;2933;52.302;8.134;2024-02-21T01:02:57;23.47;;;7.97;;
5813;SDS011;2933;52.302;8.134;2024-02-21T01:07:58;21.13;;;8.00;;
5813;SDS011;2933;52.302;8.134;2024-02-21T01:13:04;21.70;;;7.07;;
5813;SDS011;2933;52.302;8.134;2024-02-21T01:18:05;17.07;;;7.03;;
5813;SDS011;2933;52.302;8.134;2024-02-21T01:23:07;22.37;;;7.67;;
5813;SDS011;2933;52.302;8.134;2024-02-21T01:28:10;26.07;;;8.10;;
5813;SDS011;2933;52.302;8.134;2024-02-21T01:33:12;19.47;;;8.30;;
5813;SDS011;2933;52.302;8.134;2024-02-21T01:38:13;19.97;;;7.67;;
5813;SDS011;2933;52.302;8.134;2024-02-21T01:43:17;14.43;;;7.23;;
5813;SDS011;2933;52.302;8.134;2024-02-21T01:48:20;17.40;;;8.40;;
5813;SDS011;2933;52.302;8.134;2024-02-21T01:53:25;16.27;;;8.07;;
5813;SDS011;2933;52.302;8.134;2024-02-21T01:58:32;18.80;;;7.63;;
5813;SDS011;2933;52.302;8.134;2024-02-21T02:03:37;15.73;;;8.00;;
5813;SDS011;2933;52.302;8.134;2024-02-21T02:08:39;21.53;;;7.60;;
5813;SDS011;2933;52.302;8.134;2024-02-21T02:13:42;13.03;;;7.33;;
5813;SDS011;2933;52.302;8.134;2024-02-21T02:18:43;17.13;;;7.67;;
5813;SDS011;2933;52.302;8.134;2024-02-21T02:23:46;16.10;;;6.80;;
5813;SDS011;2933;52.302;8.134;2024-02-21T02:28:48;14.60;;;8.00;;
5813;SDS011;2933;52.302;8.134;2024-02-21T02:33:50;21.53;;;8.07;;
5813;SDS011;2933;52.302;8.134;2024-02-21T02:38:53;14.33;;;7.00;;
5813;SDS011;2933;52.302;8.134;2024-02-21T02:43:54;23.97;;;8.87;;
5813;SDS011;2933;52.302;8.134;2024-02-21T02:48:56;17.67;;;9.20;;
5813;SDS011;2933;52.302;8.134;2024-02-21T02:53:59;16.03;;;8.53;;
5813;SDS011;2933;52.302;8.134;2024-02-21T02:59:01;24.27;;;8.03;;
5813;SDS011;2933;52.302;8.134;2024-02-21T03:04:03;24.37;;;8.10;;
5813;SDS011;2933;52.302;8.134;2024-02-21T03:09:06;28.00;;;9.50;;
5813;SDS011;2933;52.302;8.134;2024-02-21T03:14:08;23.10;;;7.80;;
5813;SDS011;2933;52.302;8.134;2024-02-21T03:19:10;21.73;;;8.63;;
5813;SDS011;2933;52.302;8.134;2024-02-21T03:24:13;24.23;;;8.60;;
5813;SDS011;2933;52.302;8.134;2024-02-21T03:29:15;22.20;;;8.10;;
5813;SDS011;2933;52.302;8.134;2024-02-21T03:34:17;20.80;;;8.97;;
5813;SDS011;2933;52.302;8.134;2024-02-21T03:39:20;23.63;;;7.30;;
5813;SDS011;2933;52.302;8.134;2024-02-21T03:44:22;17.27;;;8.13;;
5813;SDS011;2933;52.302;8.134;2024-02-21T03:49:24;25.73;;;7.60;;
5813;SDS011;2933;52.302;8.134;2024-02-21T03:54:27;20.63;;;8.40;;
5813;SDS011;2933;52.302;8.134;2024-02-21T03:59:28;18.77;;;8.30;;
5813;SDS011;2933;52.302;8.134;2024-02-21T04:04:30;21.60;;;8.57;;
5813;SDS011;2933;52.302;8.134;2024-02-21T04:09:33;26.70;;;6.60;;
5813;SDS011;2933;52.302;8.134;2024-02-21T04:14:35;19.27;;;8.83;;
5813;SDS011;2933;52.302;8.134;2024-02-21T04:19:37;23.20;;;9.47;;
5813;SDS011;2933;52.302;8.134;2024-02-21T04:24:40;29.00;;;9.37;;
5813;SDS011;2933;52.302;8.134;2024-02-21T04:29:41;18.43;;;8.40;;
5813;SDS011;2933;52.302;8.134;2024-02-21T04:34:43;19.77;;;9.20;;
5813;SDS011;2933;52.302;8.134;2024-02-21T04:39:46;16.97;;;8.17;;
5813;SDS011;2933;52.302;8.134;2024-02-21T04:44:50;26.07;;;9.53;;
5813;SDS011;2933;52.302;8.134;2024-02-21T04:49:51;19.00;;;8.43;;
5813;SDS011;2933;52.302;8.134;2024-02-21T04:54:54;20.10;;;8.97;;
5813;SDS011;2933;52.302;8.134;2024-02-21T04:59:56;25.63;;;8.63;;
5813;SDS011;2933;52.302;8.134;2024-02-21T05:04:58;28.90;;;9.57;;
5813;SDS011;2933;52.302;8.134;2024-02-21T05:10:01;21.00;;;8.40;;
5813;SDS011;2933;52.302;8.134;2024-02-21T05:15:03;21.30;;;8.83;;
5813;SDS011;2933;52.302;8.134;2024-02-21T05:20:06;30.53;;;10.80;;
5813;SDS011;2933;52.302;8.134;2024-02-21T05:25:10;26.33;;;9.37;;
5813;SDS011;2933;52.302;8.134;2024-02-21T05:30:12;21.80;;;9.20;;
5813;SDS011;2933;52.302;8.134;2024-02-21T05:35:14;22.63;;;9.80;;
5813;SDS011;2933;52.302;8.134;2024-02-21T05:40:17;18.27;;;8.70;;
5813;SDS011;2933;52.302;8.134;2024-02-21T05:45:19;27.23;;;9.60;;
5813;SDS011;2933;52.302;8.134;2024-02-21T05:50:21;23.63;;;8.33;;
5813;SDS011;2933;52.302;8.134;2024-02-21T05:55:25;17.23;;;9.10;;
5813;SDS011;2933;52.302;8.134;2024-02-21T06:00:27;26.53;;;9.27;;
5813;SDS011;2933;52.302;8.134;2024-02-21T06:05:29;22.10;;;8.90;;
5813;SDS011;2933;52.302;8.134;2024-02-21T06:10:33;28.47;;;9.30;;
5813;SDS011;2933;52.302;8.134;2024-02-21T06:15:35;17.20;;;8.63;;
5813;SDS011;2933;52.302;8.134;2024-02-21T06:20:36;33.17;;;10.90;;
5813;SDS011;2933;52.302;8.134;2024-02-21T06:25:41;20.47;;;8.93;;
5813;SDS011;2933;52.302;8.134;2024-02-21T06:30:43;15.30;;;7.60;;
5813;SDS011;2933;52.302;8.134;2024-02-21T06:35:45;17.80;;;7.17;;
5813;SDS011;2933;52.302;8.134;2024-02-21T06:40:49;27.87;;;7.83;;
5813;SDS011;2933;52.302;8.134;2024-02-21T06:45:52;19.97;;;8.97;;
5813;SDS011;2933;52.302;8.134;2024-02-21T06:50:55;21.33;;;7.17;;
5813;SDS011;2933;52.302;8.134;2024-02-21T06:55:58;19.17;;;8.30;;
5813;SDS011;2933;52.302;8.134;2024-02-21T07:01:00;18.20;;;7.77;;
5813;SDS011;2933;52.302;8.134;2024-02-21T07:06:02;18.27;;;8.00;;
5813;SDS011;2933;52.302;8.134;2024-02-21T07:11:05;14.40;;;7.43;;
5813;SDS011;2933;52.302;8.134;2024-02-21T07:16:07;13.70;;;6.80;;
5813;SDS011;2933;52.302;8.134;2024-02-21T07:21:09;24.60;;;6.83;;
5813;SDS011;2933;52.302;8.134;2024-02-21T07:26:12;11.53;;;7.07;;
5813;SDS011;2933;52.302;8.134;2024-02-21T07:31:13;17.23;;;6.60;;
5813;SDS011;2933;52.302;8.134;2024-02-21T07:36:15;15.77;;;6.87;;
5813;SDS011;2933;52.302;8.134;2024-02-21T07:41:27;10.57;;;5.50;;
5813;SDS011;2933;52.302;8.134;2024-02-21T07:46:30;14.73;;;6.60;;
5813;SDS011;2933;52.302;8.134;2024-02-21T07:51:32;15.63;;;6.20;;
5813;SDS011;2933;52.302;8.134;2024-02-21T07:56:35;16.83;;;6.97;;
5813;SDS011;2933;52.302;8.134;2024-02-21T08:01:36;16.17;;;6.80;;
5813;SDS011;2933;52.302;8.134;2024-02-21T08:06:38;16.40;;;7.10;;
5813;SDS011;2933;52.302;8.134;2024-02-21T08:11:41;17.10;;;6.77;;
5813;SDS011;2933;52.302;8.134;2024-02-21T08:16:43;17.63;;;7.40;;
5813;SDS011;2933;52.302;8.134;2024-02-21T08:21:44;15.97;;;7.40;;
5813;SDS011;2933;52.302;8.134;2024-02-21T08:26:48;13.20;;;6.73;;
5813;SDS011;2933;52.302;8.134;2024-02-21T08:31:50;16.67;;;7.53;;
5813;SDS011;2933;52.302;8.134;2024-02-21T08:36:51;21.07;;;8.20;;
5813;SDS011;2933;52.302;8.134;2024-02-21T08:41:54;11.20;;;6.70;;
5813;SDS011;2933;52.302;8.134;2024-02-21T08:46:56;26.23;;;7.23;;
5813;SDS011;2933;52.302;8.134;2024-02-21T08:51:57;12.40;;;7.03;;
5813;SDS011;2933;52.302;8.134;2024-02-21T08:57:01;16.13;;;7.00;;
5813;SDS011;2933;52.302;8.134;2024-02-21T09:02:03;15.53;;;6.20;;
5813;SDS011;2933;52.302;8.134;2024-02-21T09:07:07;14.53;;;6.97;;
5813;SDS011;2933;52.302;8.134;2024-02-21T09:12:10;12.37;;;6.40;;
5813;SDS011;2933;52.302;8.134;2024-02-21T09:17:12;13.00;;;6.00;;
5813;SDS011;2933;52.302;8.134;2024-02-21T09:22:14;13.50;;;6.17;;
5813;SDS011;2933;52.302;8.134;2024-02-21T09:27:18;11.80;;;6.50;;
5813;SDS011;2933;52.302;8.134;2024-02-21T09:32:19;9.20;;;5.57;;
5813;SDS011;2933;52.302;8.134;2024-02-21T09:37:21;9.60;;;4.30;;
5813;SDS011;2933;52.302;8.134;2024-02-21T09:42:26;11.47;;;3.97;;
5813;SDS011;2933;52.302;8.134;2024-02-21T09:47:40;9.40;;;4.30;;
5813;SDS011;2933;52.302;8.134;2024-02-21T09:52:52;9.90;;;4.47;;
5813;SDS011;2933;52.302;8.134;2024-02-21T09:57:57;5.70;;;3.73;;
5813;SDS011;2933;52.302;8.134;2024-02-21T10:03:00;5.00;;;3.80;;
5813;SDS011;2933;52.302;8.134;2024-02-21T10:08:03;6.67;;;3.60;;
5813;SDS011;2933;52.302;8.134;2024-02-21T10:13:07;6.37;;;3.47;;
5813;SDS011;2933;52.302;8.134;2024-02-21T10:18:08;14.10;;;3.53;;
5813;SDS011;2933;52.302;8.134;2024-02-21T10:23:10;6.53;;;3.53;;
5813;SDS011;2933;52.302;8.134;2024-02-21T10:28:13;8.90;;;3.33;;
5813;SDS011;2933;52.302;8.134;2024-02-21T10:33:15;5.90;;;2.57;;
5813;SDS011;2933;52.302;8.134;2024-02-21T10:38:20;9.90;;;3.20;;
5813;SDS011;2933;52.302;8.134;2024-02-21T10:43:23;5.73;;;3.60;;
5813;SDS011;2933;52.302;8.134;2024-02-21T10:48:29;4.70;;;3.43;;
5813;SDS011;2933;52.302;8.134;2024-02-21T10:53:41;5.03;;;3.30;;
5813;SDS011;2933;52.302;8.134;2024-02-21T10:58:49;5.00;;;3.90;;
5813;SDS011;2933;52.302;8.134;2024-02-21T11:03:52;4.63;;;3.60;;
5813;SDS011;2933;52.302;8.134;2024-02-21T11:09:02;5.60;;;3.67;;
5813;SDS011;2933;52.302;8.134;2024-02-21T11:14:06;5.20;;;3.73;;
5813;SDS011;2933;52.302;8.134;2024-02-21T11:19:09;11.80;;;3.27;;
5813;SDS011;2933;52.302;8.134;2024-02-21T11:24:26;7.20;;;4.40;;
5813;SDS011;2933;52.302;8.134;2024-02-21T11:29:30;11.90;;;4.40;;
5813;SDS011;2933;52.302;8.134;2024-02-21T11:34:32;4.43;;;3.60;;
5813;SDS011;2933;52.302;8.134;2024-02-21T11:39:34;8.80;;;4.20;;
5813;SDS011;2933;52.302;8.134;2024-02-21T11:44:38;6.70;;;4.17;;
5813;SDS011;2933;52.302;8.134;2024-02-21T11:49:43;9.37;;;4.30;;
5813;SDS011;2933;52.302;8.134;2024-02-21T11:54:46;6.60;;;3.10;;
5813;SDS011;2933;52.302;8.134;2024-02-21T11:59:50;9.37;;;4.33;;
5813;SDS011;2933;52.302;8.134;2024-02-21T12:04:54;6.23;;;3.47;;
5813;SDS011;2933;52.302;8.134;2024-02-21T12:09:58;9.10;;;3.17;;
5813;SDS011;2933;52.302;8.134;2024-02-21T12:15:01;6.30;;;3.60;;
5813;SDS011;2933;52.302;8.134;2024-02-21T12:20:04;4.70;;;2.90;;
5813;SDS011;2933;52.302;8.134;2024-02-21T12:25:15;6.77;;;3.43;;
5813;SDS011;2933;52.302;8.134;2024-02-21T12:30:19;9.53;;;4.00;;
5813;SDS011;2933;52.302;8.134;2024-02-21T12:35:21;6.97;;;3.87;;
5813;SDS011;2933;52.302;8.134;2024-02-21T12:40:23;6.60;;;4.33;;
5813;SDS011;2933;52.302;8.134;2024-02-21T12:45:26;8.63;;;3.87;;
5813;SDS011;2933;52.302;8.134;2024-02-21T12:50:28;11.50;;;4.40;;
5813;SDS011;2933;52.302;8.134;2024-02-21T12:55:31;5.20;;;4.03;;
5813;SDS011;2933;52.302;8.134;2024-02-21T13:00:34;9.73;;;4.80;;
5813;SDS011;2933;52.302;8.134;2024-02-21T13:05:37;15.50;;;4.30;;
5813;SDS011;2933;52.302;8.134;2024-02-21T13:10:39;13.23;;;5.60;;
5813;SDS011;2933;52.302;8.134;2024-02-21T13:15:42;12.57;;;6.43;;
5813;SDS011;2933;52.302;8.134;2024-02-21T13:20:44;6.40;;;5.07;;
5813;SDS011;2933;52.302;8.134;2024-02-21T13:25:45;11.40;;;5.00;;
5813;SDS011;2933;52.302;8.134;2024-02-21T13:30:48;10.10;;;5.27;;
5813;SDS011;2933;52.302;8.134;2024-02-21T13:35:50;10.77;;;6.00;;
5813;SDS011;2933;52.302;8.134;2024-02-21T13:40:52;7.50;;;4.87;;
5813;SDS011;2933;52.302;8.134;2024-02-21T13:45:56;12.30;;;5.67;;
5813;SDS011;2933;52.302;8.134;2024-02-21T13:50:59;17.87;;;5.20;;
5813;SDS011;2933;52.302;8.134;2024-02-21T13:56:02;11.77;;;5.10;;
5813;SDS011;2933;52.302;8.134;2024-02-21T14:01:05;12.47;;;5.57;;
5813;SDS011;2933;52.302;8.134;2024-02-21T14:06:07;8.77;;;4.73;;
5813;SDS011;2933;52.302;8.134;2024-02-21T14:11:08;8.57;;;4.70;;
5813;SDS011;2933;52.302;8.134;2024-02-21T14:16:12;8.37;;;5.00;;
5813;SDS011;2933;52.302;8.134;2024-02-21T14:21:14;12.40;;;6.37;;
5813;SDS011;2933;52.302;8.134;2024-02-21T14:26:16;10.77;;;4.27;;
5813;SDS011;2933;52.302;8.134;2024-02-21T14:31:19;9.13;;;4.53;;
5813;SDS011;2933;52.302;8.134;2024-02-21T14:36:20;7.70;;;4.10;;
5813;SDS011;2933;52.302;8.134;2024-02-21T14:41:24;6.93;;;3.67;;
5813;SDS011;2933;52.302;8.134;2024-02-21T14:46:29;8.33;;;5.00;;
5813;SDS011;2933;52.302;8.134;2024-02-21T14:51:30;9.30;;;3.93;;
5813;SDS011;2933;52.302;8.134;2024-02-21T14:56:33;13.10;;;3.90;;
5813;SDS011;2933;52.302;8.134;2024-02-21T15:01:37;5.73;;;2.87;;
5813;SDS011;2933;52.302;8.134;2024-02-21T15:06:39;4.87;;;2.80;;
5813;SDS011;2933;52.302;8.134;2024-02-21T15:11:41;3.10;;;2.80;;
5813;SDS011;2933;52.302;8.134;2024-02-21T15:16:44;8.30;;;3.67;;
5813;SDS011;2933;52.302;8.134;2024-02-21T15:21:46;4.30;;;2.67;;
5813;SDS011;2933;52.302;8.134;2024-02-21T15:26:47;3.10;;;2.40;;
5813;SDS011;2933;52.302;8.134;2024-02-21T15:31:50;5.50;;;2.47;;
5813;SDS011;2933;52.302;8.134;2024-02-21T15:36:52;6.63;;;2.27;;
5813;SDS011;2933;52.302;8.134;2024-02-21T15:41:57;8.33;;;2.30;;
5813;SDS011;2933;52.302;8.134;2024-02-21T15:47:00;1.97;;;1.80;;
5813;SDS011;2933;52.302;8.134;2024-02-21T15:52:02;12.83;;;2.80;;
5813;SDS011;2933;52.302;8.134;2024-02-21T15:57:04;4.70;;;2.73;;
5813;SDS011;2933;52.302;8.134;2024-02-21T16:02:08;11.83;;;2.43;;
5813;SDS011;2933;52.302;8.134;2024-02-21T16:07:11;6.87;;;2.10;;
5813;SDS011;2933;52.302;8.134;2024-02-21T16:12:18;2.83;;;2.20;;
5813;SDS011;2933;52.302;8.134;2024-02-21T16:17:21;7.03;;;2.60;;
5813;SDS011;2933;52.302;8.134;2024-02-21T16:22:26;5.80;;;3.03;;
5813;SDS011;2933;52.302;8.134;2024-02-21T16:27:27;7.40;;;2.30;;
5813;SDS011;2933;52.302;8.134;2024-02-21T16:32:31;12.20;;;2.80;;
5813;SDS011;2933;52.302;8.134;2024-02-21T16:37:34;3.17;;;2.87;;
5813;SDS011;2933;52.302;8.134;2024-02-21T16:42:38;3.97;;;2.27;;
5813;SDS011;2933;52.302;8.134;2024-02-21T16:53:08;5.90;;;2.10;;
5813;SDS011;2933;52.302;8.134;2024-02-21T16:58:09;4.20;;;1.97;;
5813;SDS011;2933;52.302;8.134;2024-02-21T17:03:12;3.50;;;2.80;;
5813;SDS011;2933;52.302;8.134;2024-02-21T17:08:19;7.17;;;2.40;;
5813;SDS011;2933;52.302;8.134;2024-02-21T17:13:21;5.07;;;1.97;;
5813;SDS011;2933;52.302;8.134;2024-02-21T17:18:27;4.13;;;2.23;;
5813;SDS011;2933;52.302;8.134;2024-02-21T17:23:29;5.90;;;2.63;;
5813;SDS011;2933;52.302;8.134;2024-02-21T17:28:31;5.57;;;2.20;;
5813;SDS011;2933;52.302;8.134;2024-02-21T17:33:35;8.33;;;2.03;;
5813;SDS011;2933;52.302;8.134;2024-02-21T17:38:40;5.50;;;2.70;;
5813;SDS011;2933;52.302;8.134;2024-02-21T17:43:46;3.83;;;3.00;;
5813;SDS011;2933;52.302;8.134;2024-02-21T17:48:50;4.97;;;1.97;;
5813;SDS011;2933;52.302;8.134;2024-02-21T17:53:52;8.90;;;2.27;;
5813;SDS011;2933;52.302;8.134;2024-02-21T17:58:54;12.17;;;2.13;;
5813;SDS011;2933;52.302;8.134;2024-02-21T18:03:57;3.63;;;1.93;;
5813;SDS011;2933;52.302;8.134;2024-02-21T18:09:00;2.47;;;2.23;;
5813;SDS011;2933;52.302;8.134;2024-02-21T18:14:05;3.67;;;1.80;;
5813;SDS011;2933;52.302;8.134;2024-02-21T18:19:09;4.13;;;1.90;;
5813;SDS011;2933;52.302;8.134;2024-02-21T18:24:14;4.03;;;2.00;;
5813;SDS011;2933;52.302;8.134;2024-02-21T18:29:16;8.07;;;1.93;;
5813;SDS011;2933;52.302;8.134;2024-02-21T18:34:22;3.10;;;2.00;;
5813;SDS011;2933;52.302;8.134;2024-02-21T18:39:39;2.90;;;1.90;;
5813;SDS011;2933;52.302;8.134;2024-02-21T18:44:41;2.90;;;1.70;;
5813;SDS011;2933;52.302;8.134;2024-02-21T18:49:44;6.00;;;2.00;;
5813;SDS011;2933;52.302;8.134;2024-02-21T18:54:46;3.40;;;1.83;;
5813;SDS011;2933;52.302;8.134;2024-02-21T18:59:47;3.73;;;2.13;;
5813;SDS011;2933;52.302;8.134;2024-02-21T19:04:50;3.33;;;2.17;;
5813;SDS011;2933;52.302;8.134;2024-02-21T19:09:52;2.97;;;1.50;;
5813;SDS011;2933;52.302;8.134;2024-02-21T19:14:54;3.13;;;1.80;;
5813;SDS011;2933;52.302;8.134;2024-02-21T19:19:57;3.13;;;2.17;;
5813;SDS011;2933;52.302;8.134;2024-02-21T19:24:59;3.10;;;1.90;;
5813;SDS011;2933;52.302;8.134;2024-02-21T19:30:06;3.73;;;2.03;;
5813;SDS011;2933;52.302;8.134;2024-02-21T19:35:12;4.70;;;2.13;;
5813;SDS011;2933;52.302;8.134;2024-02-21T19:40:13;3.73;;;1.40;;
5813;SDS011;2933;52.302;8.134;2024-02-21T19:45:25;2.10;;;1.90;;
5813;SDS011;2933;52.302;8.134;2024-02-21T19:56:32;4.00;;;1.90;;
5813;SDS011;2933;52.302;8.134;2024-02-21T20:01:33;2.30;;;1.47;;
5813;SDS011;2933;52.302;8.134;2024-02-21T20:06:35;2.80;;;1.47;;
5813;SDS011;2933;52.302;8.134;2024-02-21T20:11:39;2.03;;;1.60;;
5813;SDS011;2933;52.302;8.134;2024-02-21T20:16:44;5.53;;;1.60;;
5813;SDS011;2933;52.302;8.134;2024-02-21T20:21:49;1.53;;;1.20;;
5813;SDS011;2933;52.302;8.134;2024-02-21T20:26:52;1.83;;;1.50;;
5813;SDS011;2933;52.302;8.134;2024-02-21T20:31:54;2.00;;;1.60;;
5813;SDS011;2933;52.302;8.134;2024-02-21T20:36:59;1.50;;;1.40;;
5813;SDS011;2933;52.302;8.134;2024-02-21T20:42:03;5.40;;;1.90;;
5813;SDS011;2933;52.302;8.134;2024-02-21T20:47:06;1.87;;;1.23;;
5813;SDS011;2933;52.302;8.134;2024-02-21T20:52:09;2.50;;;1.50;;
5813;SDS011;2933;52.302;8.134;2024-02-21T20:57:12;6.13;;;2.27;;
5813;SDS011;2933;52.302;8.134;2024-02-21T21:02:14;1.80;;;1.70;;
5813;SDS011;2933;52.302;8.134;2024-02-21T21:07:15;2.20;;;1.50;;
5813;SDS011;2933;52.302;8.134;2024-02-21T21:18:23;3.37;;;1.93;;
5813;SDS011;2933;52.302;8.134;2024-02-21T21:23:26;4.90;;;1.97;;
5813;SDS011;2933;52.302;8.134;2024-02-21T21:28:28;2.60;;;1.73;;
5813;SDS011;2933;52.302;8.134;2024-02-21T21:33:31;4.80;;;1.53;;
5813;SDS011;2933;52.302;8.134;2024-02-21T21:38:34;3.20;;;1.80;;
5813;SDS011;2933;52.302;8.134;2024-02-21T22:07:50;6.23;;;2.10;;
5813;SDS011;2933;52.302;8.134;2024-02-21T22:12:52;6.20;;;2.00;;
5813;SDS011;2933;52.302;8.134;2024-02-21T22:17:54;2.37;;;2.20;;
5813;SDS011;2933;52.302;8.134;2024-02-21T22:35:24;5.37;;;2.60;;
5813;SDS011;2933;52.302;8.134;2024-02-21T22:41:11;3.07;;;2.77;;
5813;SDS011;2933;52.302;8.134;2024-02-21T22:46:33;5.93;;;2.20;;
5813;SDS011;2933;52.302;8.134;2024-02-21T23:03:37;2.40;;;2.20;;
5813;SDS011;2933;52.302;8.134;2024-02-21T23:08:58;9.10;;;2.43;;
5813;SDS011;2933;52.302;8.134;2024-02-21T23:14:20;3.53;;;3.20;;
5813;SDS011;2933;52.302;8.134;2024-02-21T23:19:50;2.27;;;1.93;;
5813;SDS011;2933;52.302;8.134;2024-02-21T23:25:46;2.53;;;2.40;;
5813;SDS011;2933;52.302;8.134;2024-02-21T23:31:20;2.73;;;2.53;;
5813;SDS011;2933;52.302;8.134;2024-02-21T23:48:20;2.30;;;2.20;;
5813;SDS011;2933;52.302;8.134;2024-02-21T23:53:22;2.30;;;2.20;;
5813;SDS011;2933;52.302;8.134;2024-02-21T23:58:25;4.23;;;2.33;;
